createdAt,value
2018-08-10T00:01:27.036Z,97320.95
2018-08-10T00:06:21.513Z,97323.09
2018-08-10T00:11:15.996Z,97330.01
2018-08-10T00:16:10.528Z,97331.08
2018-08-10T00:21:05.049Z,97335.35
2018-08-10T00:25:59.537Z,97334.00
2018-08-10T00:30:54.117Z,97343.29
2018-08-10T00:35:48.692Z,97338.54
2018-08-10T00:40:43.136Z,97346.52
2018-08-10T00:45:37.596Z,97354.49
2018-08-10T00:50:32.060Z,97357.98
2018-08-10T00:55:26.605Z,97364.09
2018-08-10T01:00:23.925Z,97367.53
2018-08-10T01:05:18.476Z,97372.59
2018-08-10T01:10:15.696Z,97366.98
2018-08-10T01:15:12.854Z,97362.75
2018-08-10T01:20:14.976Z,97372.34
2018-08-10T01:25:09.468Z,97376.36
2018-08-10T01:30:04.024Z,97375.52
2018-08-10T01:34:58.496Z,97384.05
2018-08-10T01:39:52.980Z,97400.82
2018-08-10T01:44:47.416Z,97410.89
2018-08-10T01:49:41.872Z,97417.55
2018-08-10T01:54:36.336Z,97439.37
2018-08-10T01:59:30.854Z,97446.54
2018-08-10T02:04:25.334Z,97449.98
2018-08-10T02:09:19.872Z,97461.17
2018-08-10T02:14:14.624Z,97465.10
2018-08-10T02:19:09.106Z,97475.22
2018-08-10T02:24:03.636Z,97475.72
2018-08-10T02:28:58.131Z,97482.87
2018-08-10T02:33:52.617Z,97487.12
2018-08-10T02:38:47.144Z,97496.58
2018-08-10T02:43:41.618Z,97510.67
2018-08-10T02:48:36.095Z,97515.46
2018-08-10T02:53:30.561Z,97522.57
2018-08-10T02:58:25.066Z,97537.88
2018-08-10T03:03:19.612Z,97540.97
2018-08-10T03:08:14.084Z,97552.27
2018-08-10T03:13:08.557Z,97569.38
2018-08-10T03:18:03.082Z,97568.22
2018-08-10T03:22:57.585Z,97568.30
2018-08-10T03:27:52.056Z,97579.33
2018-08-10T03:32:46.555Z,97592.61
2018-08-10T03:37:41.040Z,97596.02
2018-08-10T03:42:35.577Z,97600.30
2018-08-10T03:47:30.098Z,97607.36
2018-08-10T03:52:24.613Z,97614.80
2018-08-10T03:57:19.129Z,97618.20
2018-08-10T04:02:13.665Z,97619.92
2018-08-10T04:07:08.232Z,97634.63
2018-08-10T04:12:02.733Z,97638.20
2018-08-10T04:16:57.220Z,97643.59
2018-08-10T04:21:51.713Z,97646.45
2018-08-10T04:26:46.264Z,97655.34
2018-08-10T04:31:40.778Z,97667.06
2018-08-10T04:36:35.417Z,97670.41
2018-08-10T04:41:29.972Z,97676.33
2018-08-10T04:46:24.475Z,97684.68
2018-08-10T04:51:18.995Z,97686.50
2018-08-10T04:56:13.492Z,97692.78
2018-08-10T05:01:08.008Z,97694.97
2018-08-10T05:06:02.529Z,97697.47
2018-08-10T05:10:57.109Z,97703.59
2018-08-10T05:15:51.646Z,97708.56
2018-08-10T05:20:46.222Z,97720.93
2018-08-10T05:25:40.862Z,97726.94
2018-08-10T05:30:35.439Z,97722.59
2018-08-10T05:35:30.005Z,97742.25
2018-08-10T05:40:24.584Z,97741.21
2018-08-10T05:45:19.145Z,97747.92
2018-08-10T05:50:13.648Z,97751.32
2018-08-10T05:55:08.628Z,97767.87
2018-08-10T06:00:03.245Z,97766.09
2018-08-10T06:04:57.756Z,97768.53
2018-08-10T06:09:52.308Z,97769.64
2018-08-10T06:14:46.828Z,97772.22
2018-08-10T06:19:41.423Z,97781.53
2018-08-10T06:24:36.037Z,97766.77
2018-08-10T06:29:30.420Z,97772.69
2018-08-10T06:34:24.880Z,97768.91
2018-08-10T06:39:19.318Z,97773.94
2018-08-10T06:44:13.752Z,97773.25
2018-08-10T06:49:08.163Z,97776.63
2018-08-10T06:54:03.111Z,97772.30
2018-08-10T06:58:57.815Z,97775.77
2018-08-10T07:03:52.312Z,97784.33
2018-08-10T07:08:46.848Z,97784.02
2018-08-10T07:13:41.358Z,97781.46
2018-08-10T07:18:35.859Z,97784.28
2018-08-10T07:23:30.402Z,97783.95
2018-08-10T07:28:25.064Z,97779.53
2018-08-10T07:33:19.554Z,97784.30
2018-08-10T07:38:14.360Z,97790.45
2018-08-10T07:43:08.846Z,97786.98
2018-08-10T07:48:03.431Z,97788.45
2018-08-10T07:52:57.960Z,97787.39
2018-08-10T07:57:52.437Z,97781.88
2018-08-10T08:02:46.924Z,97791.27
2018-08-10T08:07:41.433Z,97786.75
2018-08-10T08:12:36.001Z,97792.88
2018-08-10T08:17:30.488Z,97793.65
2018-08-10T08:22:24.953Z,97799.75
2018-08-10T08:27:20.043Z,97806.14
2018-08-10T08:32:14.633Z,97803.36
2018-08-10T08:37:09.666Z,97798.13
2018-08-10T08:42:04.512Z,97800.48
2018-08-10T08:47:35.896Z,97800.88
2018-08-10T08:52:30.546Z,97805.23
2018-08-10T08:57:25.943Z,97795.12
2018-08-10T09:02:21.406Z,97799.16
2018-08-10T09:07:16.707Z,97791.16
2018-08-10T09:12:11.734Z,97789.55
2018-08-10T09:17:08.261Z,97783.83
2018-08-10T09:22:03.202Z,97775.41
2018-08-10T09:26:58.138Z,97763.91
2018-08-10T09:32:13.059Z,97771.45
2018-08-10T09:37:18.833Z,97789.86
2018-08-10T09:42:15.839Z,97781.88
2018-08-10T09:47:35.510Z,97779.56
2018-08-10T09:52:53.783Z,97773.25
2018-08-10T09:57:49.097Z,97783.12
2018-08-10T10:02:47.569Z,97769.42
2018-08-10T10:07:42.377Z,97759.84
2018-08-10T10:12:37.267Z,97757.58
2018-08-10T10:17:31.950Z,97754.98
2018-08-10T10:22:26.600Z,97746.76
2018-08-10T10:27:21.128Z,97743.63
2018-08-10T10:32:15.593Z,97742.80
2018-08-10T10:37:10.368Z,97741.06
2018-08-10T10:42:07.458Z,97744.59
2018-08-10T10:47:02.373Z,97737.11
2018-08-10T10:51:56.964Z,97736.59
2018-08-10T10:56:52.395Z,97731.05
2018-08-10T11:02:01.101Z,97725.44
2018-08-10T11:07:17.248Z,97725.58
2018-08-10T11:12:12.109Z,97721.55
2018-08-10T11:17:18.180Z,97716.39
2018-08-10T11:22:23.672Z,97714.13
2018-08-10T11:27:18.522Z,97712.92
2018-08-10T11:32:14.742Z,97705.14
2018-08-10T11:37:11.304Z,97701.88
2018-08-10T11:42:06.333Z,97699.86
2018-08-10T11:47:01.252Z,97695.64
2018-08-10T11:51:58.239Z,97704.48
2018-08-10T11:56:52.865Z,97693.69
2018-08-10T12:01:47.903Z,97702.73
2018-08-10T12:06:42.636Z,97706.03
2018-08-10T12:11:37.485Z,97710.74
2018-08-10T12:16:32.326Z,97700.99
2018-08-10T12:21:26.989Z,97690.73
2018-08-10T12:26:22.234Z,97689.16
2018-08-10T12:31:17.042Z,97682.11
2018-08-10T12:36:12.384Z,97683.08
2018-08-10T12:41:07.921Z,97683.87
2018-08-10T12:46:03.235Z,97681.70
2018-08-10T12:50:58.675Z,97674.91
2018-08-10T12:55:53.425Z,97673.50
2018-08-10T13:00:48.378Z,97673.59
2018-08-10T13:05:43.508Z,97670.63
2018-08-10T13:10:38.908Z,97668.55
2018-08-10T13:15:33.744Z,97661.61
2018-08-10T13:20:29.496Z,97661.25
2018-08-10T13:25:24.241Z,97653.96
2018-08-10T13:30:19.138Z,97658.29
2018-08-10T13:35:13.765Z,97652.03
2018-08-10T13:40:08.443Z,97650.09
2018-08-10T13:45:03.153Z,97654.73
2018-08-10T13:49:58.595Z,97650.45
2018-08-10T14:00:02.849Z,97646.19
2018-08-10T14:04:59.556Z,97638.63
2018-08-10T14:09:54.301Z,97639.59
2018-08-10T14:14:49.781Z,97649.29
2018-08-10T14:19:44.709Z,97642.16
2018-08-10T14:24:39.264Z,97643.88
2018-08-10T14:29:33.873Z,97632.67
2018-08-10T14:34:29.433Z,97626.34
2018-08-10T14:39:25.528Z,97619.59
2018-08-10T14:44:24.008Z,97621.45
2018-08-10T14:49:20.959Z,97608.86
2018-08-10T14:54:15.613Z,97603.37
2018-08-10T14:59:10.192Z,97609.84
2018-08-10T15:04:04.822Z,97602.31
2018-08-10T15:09:10.314Z,97593.03
2018-08-10T15:14:16.376Z,97587.38
2018-08-10T15:19:11.256Z,97593.77
2018-08-10T15:24:08.776Z,97583.00
2018-08-10T15:29:06.168Z,97582.05
2018-08-10T15:34:03.847Z,97585.94
2018-08-10T15:39:02.916Z,97573.61
2018-08-10T15:44:09.265Z,97579.09
2018-08-10T15:49:04.197Z,97581.42
2018-08-10T15:53:58.801Z,97581.66
2018-08-10T15:59:01.793Z,97576.94
2018-08-10T16:03:56.417Z,97577.20
2018-08-10T16:08:51.214Z,97572.15
2018-08-10T16:13:45.837Z,97572.97
2018-08-10T16:18:40.457Z,97568.41
2018-08-10T16:23:35.009Z,97566.77
2018-08-10T16:28:30.426Z,97557.28
2018-08-10T16:33:25.440Z,97561.16
2018-08-10T16:38:20.049Z,97557.66
2018-08-10T16:43:14.732Z,97552.02
2018-08-10T16:48:12.464Z,97552.72
2018-08-10T16:53:07.201Z,97555.25
2018-08-10T16:58:02.128Z,97552.67
2018-08-10T17:02:56.917Z,97557.76
2018-08-10T17:07:51.752Z,97550.87
2018-08-10T17:12:46.780Z,97549.54
2018-08-10T17:17:42.221Z,97551.20
2018-08-10T17:22:36.813Z,97553.14
2018-08-10T17:27:32.612Z,97546.52
2018-08-10T17:32:27.146Z,97542.00
2018-08-10T17:37:21.777Z,97542.05
2018-08-10T17:42:16.320Z,97540.23
2018-08-10T17:47:10.897Z,97535.73
2018-08-10T17:52:05.468Z,97532.52
2018-08-10T17:57:00.134Z,97537.30
2018-08-10T18:01:54.718Z,97544.63
2018-08-10T18:06:49.450Z,97544.32
2018-08-10T18:11:43.992Z,97547.56
2018-08-10T18:16:38.550Z,97550.27
2018-08-10T18:21:33.582Z,97553.28
2018-08-10T18:26:28.425Z,97549.36
2018-08-10T18:31:23.004Z,97552.61
2018-08-10T18:36:17.542Z,97554.75
2018-08-10T18:41:12.121Z,97548.92
2018-08-10T18:46:07.117Z,97552.69
2018-08-10T18:51:01.669Z,97553.23
2018-08-10T18:55:56.263Z,97552.44
2018-08-10T19:00:50.911Z,97556.98
2018-08-10T19:05:45.553Z,97563.41
2018-08-10T19:10:40.330Z,97557.77
2018-08-10T19:15:34.893Z,97563.66
2018-08-10T19:20:29.470Z,97573.29
2018-08-10T19:25:24.058Z,97576.76
2018-08-10T19:30:20.105Z,97579.38
2018-08-10T19:35:15.164Z,97581.50
2018-08-10T19:40:12.809Z,97585.23
2018-08-10T19:45:09.779Z,97588.41
2018-08-10T19:50:04.901Z,97584.92
2018-08-10T19:54:59.478Z,97591.84
2018-08-10T19:59:54.181Z,97588.80
2018-08-10T20:04:48.794Z,97582.64
2018-08-10T20:09:43.398Z,97594.08
2018-08-10T20:14:37.973Z,97590.80
2018-08-10T20:19:32.520Z,97599.73
2018-08-10T20:24:27.074Z,97591.97
2018-08-10T20:29:21.596Z,97589.79
2018-08-10T20:34:16.165Z,97587.13
2018-08-10T20:39:11.726Z,97590.84
2018-08-10T20:44:06.369Z,97584.95
2018-08-10T20:49:01.198Z,97589.95
2018-08-10T20:53:55.768Z,97600.34
2018-08-10T20:58:50.313Z,97592.02
2018-08-10T21:03:44.944Z,97592.22
2018-08-10T21:08:39.515Z,97596.95
2018-08-10T21:13:34.121Z,97600.37
2018-08-10T21:18:28.647Z,97601.58
2018-08-10T21:23:23.217Z,97606.55
2018-08-10T21:28:17.805Z,97607.77
2018-08-10T21:33:12.445Z,97605.56
2018-08-10T21:38:07.013Z,97602.54
2018-08-10T21:43:01.638Z,97599.25
2018-08-10T21:47:56.188Z,97598.92
2018-08-10T21:52:50.708Z,97601.48
2018-08-10T21:57:45.306Z,97599.84
2018-08-10T22:02:39.850Z,97598.39
2018-08-10T22:07:34.460Z,97608.88
2018-08-10T22:12:29.082Z,97613.11
2018-08-10T22:17:28.724Z,97609.86
2018-08-10T22:22:23.245Z,97615.42
2018-08-10T22:27:17.813Z,97610.77
2018-08-10T22:32:12.348Z,97615.59
2018-08-10T22:37:06.905Z,97612.81
2018-08-10T22:42:01.488Z,97615.03
2018-08-10T22:46:56.055Z,97610.99
2018-08-10T22:51:50.649Z,97610.45
2018-08-10T22:56:45.428Z,97612.16
2018-08-10T23:01:40.052Z,97609.25
2018-08-10T23:06:34.661Z,97605.18
2018-08-10T23:11:29.232Z,97610.45
2018-08-10T23:16:23.824Z,97605.12
2018-08-10T23:21:18.760Z,97603.50
2018-08-10T23:26:13.314Z,97613.39
2018-08-10T23:31:08.014Z,97605.16
2018-08-10T23:36:02.740Z,97608.75
2018-08-10T23:40:57.331Z,97607.50
2018-08-10T23:45:51.961Z,97608.53
2018-08-10T23:50:46.527Z,97603.23
2018-08-10T23:55:41.052Z,97601.16
